sensor_id;sensor_type;location;lat;lon;timestamp;pressure;altitude;pressure_sealevel;temperature;humidity
6528;BME280;64597;42.664;23.256;2023-07-28T00:01:24;94662.00;;;16.31;49.24
6528;BME280;64597;42.664;23.256;2023-07-28T00:03:50;94655.38;;;16.29;49.15
6528;BME280;64597;42.664;23.256;2023-07-28T00:06:15;94652.44;;;16.30;49.19
6528;BME280;64597;42.664;23.256;2023-07-28T00:08:40;94638.88;;;16.17;49.32
6528;BME280;64597;42.664;23.256;2023-07-28T00:11:13;94656.94;;;16.20;49.00
6528;BME280;64597;42.664;23.256;2023-07-28T00:13:39;94655.63;;;16.12;48.93
6528;BME280;64597;42.664;23.256;2023-07-28T00:16:05;94649.50;;;16.12;48.95
6528;BME280;64597;42.664;23.256;2023-07-28T00:18:31;94648.97;;;16.10;49.17
6528;BME280;64597;42.664;23.256;2023-07-28T00:20:56;94642.88;;;16.04;49.41
6528;BME280;64597;42.664;23.256;2023-07-28T00:23:22;94626.09;;;15.89;49.48
6528;BME280;64597;42.664;23.256;2023-07-28T00:25:47;94625.03;;;15.90;49.49
6528;BME280;64597;42.664;23.256;2023-07-28T00:28:13;94629.81;;;15.93;49.27
6528;BME280;64597;42.664;23.256;2023-07-28T00:30:39;94633.53;;;15.92;49.22
6528;BME280;64597;42.664;23.256;2023-07-28T00:33:05;94634.06;;;15.99;49.12
6528;BME280;64597;42.664;23.256;2023-07-28T00:35:30;94632.75;;;15.91;49.11
6528;BME280;64597;42.664;23.256;2023-07-28T00:37:56;94635.13;;;15.93;48.50
6528;BME280;64597;42.664;23.256;2023-07-28T00:40:22;94638.31;;;15.95;48.57
6528;BME280;64597;42.664;23.256;2023-07-28T00:42:48;94633.28;;;15.98;48.60
6528;BME280;64597;42.664;23.256;2023-07-28T00:45:13;94638.06;;;15.96;48.15
6528;BME280;64597;42.664;23.256;2023-07-28T00:47:39;94645.75;;;16.03;47.99
6528;BME280;64597;42.664;23.256;2023-07-28T00:50:06;94635.13;;;16.03;47.76
6528;BME280;64597;42.664;23.256;2023-07-28T00:52:33;94635.41;;;16.01;48.17
6528;BME280;64597;42.664;23.256;2023-07-28T00:54:59;94637.81;;;15.98;48.17
6528;BME280;64597;42.664;23.256;2023-07-28T00:57:25;94646.81;;;15.97;48.30
6528;BME280;64597;42.664;23.256;2023-07-28T00:59:50;94644.69;;;15.99;48.26
6528;BME280;64597;42.664;23.256;2023-07-28T01:02:16;94633.53;;;15.92;47.81
6528;BME280;64597;42.664;23.256;2023-07-28T01:04:41;94644.72;;;16.04;46.96
6528;BME280;64597;42.664;23.256;2023-07-28T01:07:14;94612.28;;;15.92;46.73
6528;BME280;64597;42.664;23.256;2023-07-28T01:12:17;94647.91;;;16.11;46.80
6528;BME280;64597;42.664;23.256;2023-07-28T01:14:43;94651.13;;;16.13;47.03
6528;BME280;64597;42.664;23.256;2023-07-28T01:17:09;94642.88;;;16.14;47.17
6528;BME280;64597;42.664;23.256;2023-07-28T01:19:35;94639.13;;;16.15;47.38
6528;BME280;64597;42.664;23.256;2023-07-28T01:27:51;94647.63;;;16.07;45.95
6528;BME280;64597;42.664;23.256;2023-07-28T01:30:19;94646.56;;;16.13;46.37
6528;BME280;64597;42.664;23.256;2023-07-28T01:32:47;94644.19;;;16.17;47.02
6528;BME280;64597;42.664;23.256;2023-07-28T01:35:12;94654.84;;;16.17;47.65
6528;BME280;64597;42.664;23.256;2023-07-28T01:37:38;94647.13;;;16.20;47.80
6528;BME280;64597;42.664;23.256;2023-07-28T01:40:04;94598.69;;;15.83;47.90
6528;BME280;64597;42.664;23.256;2023-07-28T01:42:29;94642.06;;;16.19;48.37
6528;BME280;64597;42.664;23.256;2023-07-28T01:44:55;94654.56;;;16.18;49.40
6528;BME280;64597;42.664;23.256;2023-07-28T01:47:20;94634.34;;;16.07;49.67
6528;BME280;64597;42.664;23.256;2023-07-28T01:49:46;94645.25;;;16.11;49.72
6528;BME280;64597;42.664;23.256;2023-07-28T01:52:11;94643.63;;;16.05;50.41
6528;BME280;64597;42.664;23.256;2023-07-28T01:54:37;94648.44;;;16.08;51.36
6528;BME280;64597;42.664;23.256;2023-07-28T01:57:02;94643.13;;;15.98;51.76
6528;BME280;64597;42.664;23.256;2023-07-28T01:59:28;94650.56;;;15.96;51.81
6528;BME280;64597;42.664;23.256;2023-07-28T02:01:53;94660.66;;;15.99;52.34
6528;BME280;64597;42.664;23.256;2023-07-28T02:04:19;94650.81;;;15.89;52.32
6528;BME280;64597;42.664;23.256;2023-07-28T02:06:44;94653.22;;;15.91;52.59
6528;BME280;64597;42.664;23.256;2023-07-28T02:09:10;94652.69;;;15.94;52.59
6528;BME280;64597;42.664;23.256;2023-07-28T02:11:35;94632.97;;;15.75;52.63
6528;BME280;64597;42.664;23.256;2023-07-28T02:14:00;94663.03;;;15.85;53.05
6528;BME280;64597;42.664;23.256;2023-07-28T02:16:26;94652.41;;;15.80;53.20
6528;BME280;64597;42.664;23.256;2023-07-28T02:18:53;94659.59;;;15.80;53.11
6528;BME280;64597;42.664;23.256;2023-07-28T02:21:19;94658.25;;;15.77;53.31
6528;BME280;64597;42.664;23.256;2023-07-28T02:23:44;94659.56;;;15.75;53.52
6528;BME280;64597;42.664;23.256;2023-07-28T02:26:10;94665.44;;;15.72;53.69
6528;BME280;64597;42.664;23.256;2023-07-28T02:28:35;94664.34;;;15.68;54.07
6528;BME280;64597;42.664;23.256;2023-07-28T02:31:01;94662.47;;;15.63;53.62
6528;BME280;64597;42.664;23.256;2023-07-28T02:33:27;94664.06;;;15.64;53.39
6528;BME280;64597;42.664;23.256;2023-07-28T02:35:55;94656.91;;;15.64;53.21
6528;BME280;64597;42.664;23.256;2023-07-28T02:38:21;94658.47;;;15.60;52.88
6528;BME280;64597;42.664;23.256;2023-07-28T02:40:46;94626.50;;;15.35;53.11
6528;BME280;64597;42.664;23.256;2023-07-28T02:43:11;94659.25;;;15.51;52.91
6528;BME280;64597;42.664;23.256;2023-07-28T02:45:37;94656.84;;;15.44;52.66
6528;BME280;64597;42.664;23.256;2023-07-28T02:48:02;94659.00;;;15.47;52.95
6528;BME280;64597;42.664;23.256;2023-07-28T02:50:28;94652.88;;;15.47;53.10
6528;BME280;64597;42.664;23.256;2023-07-28T02:52:53;94647.25;;;15.43;53.22
6528;BME280;64597;42.664;23.256;2023-07-28T02:55:19;94652.06;;;15.46;53.45
6528;BME280;64597;42.664;23.256;2023-07-28T02:57:44;94655.25;;;15.43;53.21
6528;BME280;64597;42.664;23.256;2023-07-28T03:00:10;94651.47;;;15.34;53.35
6528;BME280;64597;42.664;23.256;2023-07-28T03:02:36;94657.31;;;15.36;53.22
6528;BME280;64597;42.664;23.256;2023-07-28T03:05:02;94649.28;;;15.21;53.23
6528;BME280;64597;42.664;23.256;2023-07-28T03:07:27;94667.94;;;15.26;53.57
6528;BME280;64597;42.664;23.256;2023-07-28T03:09:52;94667.34;;;15.19;53.93
6528;BME280;64597;42.664;23.256;2023-07-28T03:12:18;94645.00;;;15.05;54.03
6528;BME280;64597;42.664;23.256;2023-07-28T03:14:43;94664.16;;;15.12;54.28
6528;BME280;64597;42.664;23.256;2023-07-28T03:17:09;94661.72;;;15.11;54.16
6528;BME280;64597;42.664;23.256;2023-07-28T03:19:34;94669.44;;;15.07;54.43
6528;BME280;64597;42.664;23.256;2023-07-28T03:21:59;94665.97;;;15.02;54.55
6528;BME280;64597;42.664;23.256;2023-07-28T03:24:25;94672.06;;;15.02;54.50
6528;BME280;64597;42.664;23.256;2023-07-28T03:26:50;94674.47;;;15.04;55.34
6528;BME280;64597;42.664;23.256;2023-07-28T03:29:16;94678.97;;;15.03;54.91
6528;BME280;64597;42.664;23.256;2023-07-28T03:31:41;94681.09;;;15.01;55.18
6528;BME280;64597;42.664;23.256;2023-07-28T03:34:07;94682.16;;;15.00;55.28
6528;BME280;64597;42.664;23.256;2023-07-28T03:36:32;94680.28;;;15.01;55.13
6528;BME280;64597;42.664;23.256;2023-07-28T03:38:57;94680.00;;;14.97;55.40
6528;BME280;64597;42.664;23.256;2023-07-28T03:41:23;94685.84;;;14.99;55.42
6528;BME280;64597;42.664;23.256;2023-07-28T03:43:48;94644.59;;;14.71;55.69
6528;BME280;64597;42.664;23.256;2023-07-28T03:46:14;94668.53;;;14.81;55.77
6528;BME280;64597;42.664;23.256;2023-07-28T03:48:39;94686.63;;;14.95;55.51
6528;BME280;64597;42.664;23.256;2023-07-28T03:51:05;94680.00;;;14.97;55.41
6528;BME280;64597;42.664;23.256;2023-07-28T03:53:30;94682.66;;;14.92;55.48
6528;BME280;64597;42.664;23.256;2023-07-28T03:55:56;94683.75;;;15.01;55.63
6528;BME280;64597;42.664;23.256;2023-07-28T03:58:26;94686.41;;;15.01;55.79
6528;BME280;64597;42.664;23.256;2023-07-28T04:00:52;94685.09;;;15.04;55.90
6528;BME280;64597;42.664;23.256;2023-07-28T04:03:21;94684.28;;;15.03;55.57
6528;BME280;64597;42.664;23.256;2023-07-28T04:05:46;94686.66;;;15.05;55.45
6528;BME280;64597;42.664;23.256;2023-07-28T04:08:12;94689.88;;;15.07;55.33
6528;BME280;64597;42.664;23.256;2023-07-28T04:10:37;94687.75;;;15.09;55.77
6528;BME280;64597;42.664;23.256;2023-07-28T04:13:03;94681.13;;;15.11;55.38
6528;BME280;64597;42.664;23.256;2023-07-28T04:15:28;94684.31;;;15.13;55.49
6528;BME280;64597;42.664;23.256;2023-07-28T04:17:53;94692.88;;;15.20;55.55
6528;BME280;64597;42.664;23.256;2023-07-28T04:20:19;94693.41;;;15.22;55.51
6528;BME280;64597;42.664;23.256;2023-07-28T04:22:44;94693.69;;;15.26;55.01
6528;BME280;64597;42.664;23.256;2023-07-28T04:25:10;94688.63;;;15.29;55.13
6528;BME280;64597;42.664;23.256;2023-07-28T04:27:35;94692.91;;;15.35;54.98
6528;BME280;64597;42.664;23.256;2023-07-28T04:30:04;94694.53;;;15.36;55.02
6528;BME280;64597;42.664;23.256;2023-07-28T04:32:30;94696.97;;;15.43;55.03
6528;BME280;64597;42.664;23.256;2023-07-28T04:34:55;94687.41;;;15.47;55.01
6528;BME280;64597;42.664;23.256;2023-07-28T04:37:21;94690.34;;;15.50;55.04
6528;BME280;64597;42.664;23.256;2023-07-28T04:39:46;94689.84;;;15.53;54.66
6528;BME280;64597;42.664;23.256;2023-07-28T04:42:12;94691.44;;;15.59;54.44
6528;BME280;64597;42.664;23.256;2023-07-28T04:44:38;94681.88;;;15.58;54.39
6528;BME280;64597;42.664;23.256;2023-07-28T04:47:05;94677.13;;;15.65;54.40
6528;BME280;64597;42.664;23.256;2023-07-28T04:53:04;94682.94;;;19.36;53.98
6528;BME280;64597;42.664;23.256;2023-07-28T04:55:41;94680.78;;;20.36;49.58
6528;BME280;64597;42.664;23.256;2023-07-28T04:58:13;94679.94;;;21.00;44.55
6528;BME280;64597;42.664;23.256;2023-07-28T05:00:49;94672.47;;;21.56;43.41
6528;BME280;64597;42.664;23.256;2023-07-28T05:03:16;94670.41;;;22.02;42.02
6528;BME280;64597;42.664;23.256;2023-07-28T05:05:45;94657.06;;;22.33;40.19
6528;BME280;64597;42.664;23.256;2023-07-28T05:08:10;94664.00;;;22.70;42.04
6528;BME280;64597;42.664;23.256;2023-07-28T05:10:36;94635.53;;;22.69;41.04
6528;BME280;64597;42.664;23.256;2023-07-28T05:13:02;94660.06;;;22.54;38.60
6528;BME280;64597;42.664;23.256;2023-07-28T05:15:30;94672.03;;;21.76;38.97
6528;BME280;64597;42.664;23.256;2023-07-28T05:17:56;94673.25;;;21.16;40.08
6528;BME280;64597;42.664;23.256;2023-07-28T05:20:21;94671.16;;;20.67;40.50
6528;BME280;64597;42.664;23.256;2023-07-28T05:22:47;94686.91;;;20.36;41.34
6528;BME280;64597;42.664;23.256;2023-07-28T05:25:12;94679.25;;;20.11;41.55
6528;BME280;64597;42.664;23.256;2023-07-28T05:27:38;94683.09;;;19.87;42.09
6528;BME280;64597;42.664;23.256;2023-07-28T05:30:04;94661.13;;;19.47;42.30
6528;BME280;64597;42.664;23.256;2023-07-28T05:32:29;94668.53;;;19.32;42.90
6528;BME280;64597;42.664;23.256;2023-07-28T05:34:55;94690.47;;;19.29;42.99
6528;BME280;64597;42.664;23.256;2023-07-28T05:37:20;94672.09;;;19.22;43.66
6528;BME280;64597;42.664;23.256;2023-07-28T05:39:46;94675.19;;;19.11;44.31
6528;BME280;64597;42.664;23.256;2023-07-28T05:42:11;94674.69;;;19.04;44.52
6528;BME280;64597;42.664;23.256;2023-07-28T05:44:36;94672.66;;;18.96;44.15
6528;BME280;64597;42.664;23.256;2023-07-28T05:47:02;94668.44;;;18.89;44.33
6528;BME280;64597;42.664;23.256;2023-07-28T05:49:28;94670.16;;;18.80;44.71
6528;BME280;64597;42.664;23.256;2023-07-28T05:51:53;94669.69;;;18.73;44.86
6528;BME280;64597;42.664;23.256;2023-07-28T05:54:21;94667.00;;;18.73;44.81
6528;BME280;64597;42.664;23.256;2023-07-28T05:56:47;94662.41;;;18.79;44.94
6528;BME280;64597;42.664;23.256;2023-07-28T05:59:12;94659.34;;;18.90;44.65
6528;BME280;64597;42.664;23.256;2023-07-28T06:01:38;94659.97;;;19.06;44.17
6528;BME280;64597;42.664;23.256;2023-07-28T06:04:03;94661.34;;;19.27;44.11
6528;BME280;64597;42.664;23.256;2023-07-28T06:06:29;94661.19;;;19.42;43.99
6528;BME280;64597;42.664;23.256;2023-07-28T06:08:54;94644.44;;;19.55;43.33
6528;BME280;64597;42.664;23.256;2023-07-28T06:11:20;94654.44;;;19.87;43.60
6528;BME280;64597;42.664;23.256;2023-07-28T06:13:46;94651.03;;;20.19;42.05
6528;BME280;64597;42.664;23.256;2023-07-28T06:16:12;94654.03;;;20.49;40.49
6528;BME280;64597;42.664;23.256;2023-07-28T06:18:38;94643.41;;;20.77;40.56
6528;BME280;64597;42.664;23.256;2023-07-28T06:21:03;94649.41;;;21.14;39.34
6528;BME280;64597;42.664;23.256;2023-07-28T06:23:29;94644.41;;;21.49;39.01
6528;BME280;64597;42.664;23.256;2023-07-28T06:25:55;94644.78;;;21.69;38.41
6528;BME280;64597;42.664;23.256;2023-07-28T06:28:20;94645.41;;;22.16;37.69
6528;BME280;64597;42.664;23.256;2023-07-28T06:30:46;94644.94;;;22.58;37.12
6528;BME280;64597;42.664;23.256;2023-07-28T06:33:11;94640.44;;;22.98;36.01
6528;BME280;64597;42.664;23.256;2023-07-28T06:35:37;94638.44;;;23.42;35.99
6528;BME280;64597;42.664;23.256;2023-07-28T06:38:03;94632.16;;;23.72;35.20
6528;BME280;64597;42.664;23.256;2023-07-28T06:40:29;94625.41;;;24.09;34.30
6528;BME280;64597;42.664;23.256;2023-07-28T06:42:54;94637.09;;;24.47;33.57
6528;BME280;64597;42.664;23.256;2023-07-28T06:45:20;94614.25;;;24.53;32.40
6528;BME280;64597;42.664;23.256;2023-07-28T06:47:46;94633.38;;;25.03;32.31
6528;BME280;64597;42.664;23.256;2023-07-28T06:50:12;94640.34;;;25.51;41.18
6528;BME280;64597;42.664;23.256;2023-07-28T06:52:38;94636.19;;;26.32;39.60
6528;BME280;64597;42.664;23.256;2023-07-28T06:55:04;94642.09;;;27.00;36.94
6528;BME280;64597;42.664;23.256;2023-07-28T06:57:30;94630.22;;;27.49;32.99
6528;BME280;64597;42.664;23.256;2023-07-28T06:59:56;94626.84;;;27.76;32.10
6528;BME280;64597;42.664;23.256;2023-07-28T07:02:22;94630.84;;;28.18;30.36
6528;BME280;64597;42.664;23.256;2023-07-28T07:04:48;94628.41;;;28.41;29.00
6528;BME280;64597;42.664;23.256;2023-07-28T07:07:14;94618.97;;;28.63;28.58
6528;BME280;64597;42.664;23.256;2023-07-28T07:09:39;94637.91;;;28.75;28.44
6528;BME280;64597;42.664;23.256;2023-07-28T07:12:09;94628.06;;;28.98;27.82
6528;BME280;64597;42.664;23.256;2023-07-28T07:14:35;94625.72;;;29.12;26.97
6528;BME280;64597;42.664;23.256;2023-07-28T07:17:00;94584.88;;;29.08;27.65
6528;BME280;64597;42.664;23.256;2023-07-28T07:19:29;94629.25;;;29.59;27.11
6528;BME280;64597;42.664;23.256;2023-07-28T07:21:55;94621.53;;;29.61;25.05
6528;BME280;64597;42.664;23.256;2023-07-28T07:24:21;94631.66;;;29.76;25.45
6528;BME280;64597;42.664;23.256;2023-07-28T07:26:46;94638.47;;;29.86;25.21
6528;BME280;64597;42.664;23.256;2023-07-28T07:29:13;94635.19;;;29.96;25.01
6528;BME280;64597;42.664;23.256;2023-07-28T07:31:39;94640.38;;;30.01;24.80
6528;BME280;64597;42.664;23.256;2023-07-28T07:34:04;94629.94;;;29.87;24.70
6528;BME280;64597;42.664;23.256;2023-07-28T07:36:30;94637.31;;;29.71;25.08
6528;BME280;64597;42.664;23.256;2023-07-28T07:38:55;94638.28;;;29.63;25.17
6528;BME280;64597;42.664;23.256;2023-07-28T07:41:22;94637.94;;;29.49;25.74
6528;BME280;64597;42.664;23.256;2023-07-28T07:43:49;94633.63;;;29.48;25.88
6528;BME280;64597;42.664;23.256;2023-07-28T07:46:15;94634.78;;;29.78;25.16
6528;BME280;64597;42.664;23.256;2023-07-28T07:48:41;94636.41;;;29.98;24.30
6528;BME280;64597;42.664;23.256;2023-07-28T07:51:07;94634.75;;;30.29;24.42
6528;BME280;64597;42.664;23.256;2023-07-28T07:53:33;94638.53;;;30.40;23.68
6528;BME280;64597;42.664;23.256;2023-07-28T07:55:59;94637.38;;;30.60;23.78
6528;BME280;64597;42.664;23.256;2023-07-28T07:58:24;94637.34;;;30.79;23.81
6528;BME280;64597;42.664;23.256;2023-07-28T08:00:50;94636.06;;;30.73;25.89
6528;BME280;64597;42.664;23.256;2023-07-28T08:03:15;94627.78;;;30.85;25.05
6528;BME280;64597;42.664;23.256;2023-07-28T08:05:40;94627.69;;;31.01;23.54
6528;BME280;64597;42.664;23.256;2023-07-28T08:08:06;94640.84;;;30.95;24.33
6528;BME280;64597;42.664;23.256;2023-07-28T08:10:33;94633.34;;;31.11;23.49
6528;BME280;64597;42.664;23.256;2023-07-28T08:12:58;94629.34;;;31.05;23.15
6528;BME280;64597;42.664;23.256;2023-07-28T08:15:25;94614.00;;;30.78;23.82
6528;BME280;64597;42.664;23.256;2023-07-28T08:17:50;94629.09;;;30.91;23.77
6528;BME280;64597;42.664;23.256;2023-07-28T08:20:16;94622.88;;;31.36;23.92
6528;BME280;64597;42.664;23.256;2023-07-28T08:22:41;94617.78;;;31.57;22.84
6528;BME280;64597;42.664;23.256;2023-07-28T08:25:07;94614.53;;;31.71;22.59
6528;BME280;64597;42.664;23.256;2023-07-28T08:27:33;94611.09;;;31.77;22.30
6528;BME280;64597;42.664;23.256;2023-07-28T08:29:58;94612.84;;;31.89;22.55
6528;BME280;64597;42.664;23.256;2023-07-28T08:32:24;94615.91;;;31.87;22.34
6528;BME280;64597;42.664;23.256;2023-07-28T08:34:49;94624.81;;;32.07;22.30
6528;BME280;64597;42.664;23.256;2023-07-28T08:37:15;94628.00;;;32.12;21.98
6528;BME280;64597;42.664;23.256;2023-07-28T08:39:40;94623.66;;;32.08;21.71
6528;BME280;64597;42.664;23.256;2023-07-28T08:42:06;94622.03;;;32.29;21.62
6528;BME280;64597;42.664;23.256;2023-07-28T08:44:33;94623.97;;;32.29;21.20
6528;BME280;64597;42.664;23.256;2023-07-28T08:47:00;94615.94;;;32.43;22.20
6528;BME280;64597;42.664;23.256;2023-07-28T08:49:25;94617.53;;;32.44;21.53
6528;BME280;64597;42.664;23.256;2023-07-28T08:51:52;94608.38;;;32.59;21.44
6528;BME280;64597;42.664;23.256;2023-07-28T08:54:22;94602.38;;;32.80;20.89
6528;BME280;64597;42.664;23.256;2023-07-28T08:56:48;94596.13;;;32.79;21.26
6528;BME280;64597;42.664;23.256;2023-07-28T08:59:23;94607.00;;;33.09;20.62
6528;BME280;64597;42.664;23.256;2023-07-28T09:01:52;94589.66;;;33.31;20.67
6528;BME280;64597;42.664;23.256;2023-07-28T09:04:19;94593.03;;;33.61;20.17
6528;BME280;64597;42.664;23.256;2023-07-28T09:06:46;94588.38;;;33.62;20.37
6528;BME280;64597;42.664;23.256;2023-07-28T09:09:13;94561.09;;;33.76;19.97
6528;BME280;64597;42.664;23.256;2023-07-28T09:11:52;94566.72;;;33.93;19.72
6528;BME280;64597;42.664;23.256;2023-07-28T09:14:20;94580.34;;;33.90;19.44
6528;BME280;64597;42.664;23.256;2023-07-28T09:16:47;94576.06;;;33.92;19.43
6528;BME280;64597;42.664;23.256;2023-07-28T09:19:13;94558.94;;;33.99;19.74
6528;BME280;64597;42.664;23.256;2023-07-28T09:21:42;94572.44;;;34.39;19.59
6528;BME280;64597;42.664;23.256;2023-07-28T09:24:10;94536.06;;;34.42;18.66
6528;BME280;64597;42.664;23.256;2023-07-28T09:26:47;94555.72;;;34.58;18.53
6528;BME280;64597;42.664;23.256;2023-07-28T09:29:22;94556.09;;;34.50;18.56
6528;BME280;64597;42.664;23.256;2023-07-28T09:31:49;94544.38;;;34.53;18.19
6528;BME280;64597;42.664;23.256;2023-07-28T09:34:27;94541.25;;;34.58;19.25
6528;BME280;64597;42.664;23.256;2023-07-28T09:36:57;94537.34;;;34.69;18.54
6528;BME280;64597;42.664;23.256;2023-07-28T09:39:24;94538.53;;;34.68;18.58
6528;BME280;64597;42.664;23.256;2023-07-28T09:41:50;94533.09;;;34.82;18.53
6528;BME280;64597;42.664;23.256;2023-07-28T09:44:16;94521.72;;;34.84;18.64
6528;BME280;64597;42.664;23.256;2023-07-28T09:46:52;94520.97;;;34.94;18.42
6528;BME280;64597;42.664;23.256;2023-07-28T09:49:27;94511.97;;;34.94;18.47
6528;BME280;64597;42.664;23.256;2023-07-28T09:51:54;94521.78;;;35.09;18.46
6528;BME280;64597;42.664;23.256;2023-07-28T09:54:25;94522.59;;;35.09;18.02
6528;BME280;64597;42.664;23.256;2023-07-28T09:56:57;94521.03;;;35.36;17.79
6528;BME280;64597;42.664;23.256;2023-07-28T09:59:32;94518.69;;;35.52;17.63
6528;BME280;64597;42.664;23.256;2023-07-28T10:02:01;94505.34;;;35.58;17.26
6528;BME280;64597;42.664;23.256;2023-07-28T10:04:27;94506.94;;;35.52;17.25
6528;BME280;64597;42.664;23.256;2023-07-28T10:06:54;94502.63;;;35.47;18.06
6528;BME280;64597;42.664;23.256;2023-07-28T10:09:31;94505.34;;;35.37;17.79
6528;BME280;64597;42.664;23.256;2023-07-28T10:11:59;94501.44;;;35.38;18.02
6528;BME280;64597;42.664;23.256;2023-07-28T10:14:35;94510.81;;;35.44;17.94
6528;BME280;64597;42.664;23.256;2023-07-28T10:17:03;94490.09;;;35.50;17.92
6528;BME280;64597;42.664;23.256;2023-07-28T10:19:31;94509.22;;;35.89;17.40
6528;BME280;64597;42.664;23.256;2023-07-28T10:22:07;94493.53;;;36.00;17.32
6528;BME280;64597;42.664;23.256;2023-07-28T10:33:45;94478.72;;;35.55;16.28
6528;BME280;64597;42.664;23.256;2023-07-28T10:38:37;94478.31;;;35.46;16.32
6528;BME280;64597;42.664;23.256;2023-07-28T10:41:20;94481.06;;;35.46;16.93
6528;BME280;64597;42.664;23.256;2023-07-28T10:43:46;94469.28;;;35.35;17.89
6528;BME280;64597;42.664;23.256;2023-07-28T10:46:16;94480.28;;;35.52;17.61
6528;BME280;64597;42.664;23.256;2023-07-28T10:48:43;94485.75;;;35.42;16.99
6528;BME280;64597;42.664;23.256;2023-07-28T10:51:10;94473.22;;;35.23;15.63
6528;BME280;64597;42.664;23.256;2023-07-28T10:53:37;94465.00;;;35.34;16.51
6528;BME280;64597;42.664;23.256;2023-07-28T10:56:03;94466.16;;;35.19;16.90
6528;BME280;64597;42.664;23.256;2023-07-28T10:58:31;94460.69;;;35.15;16.43
6528;BME280;64597;42.664;23.256;2023-07-28T11:00:58;94466.16;;;35.19;16.55
6528;BME280;64597;42.664;23.256;2023-07-28T11:03:24;94446.59;;;35.17;16.58
6528;BME280;64597;42.664;23.256;2023-07-28T11:05:49;94458.34;;;35.17;15.95
6528;BME280;64597;42.664;23.256;2023-07-28T11:08:16;94442.28;;;35.16;16.58
6528;BME280;64597;42.664;23.256;2023-07-28T11:10:41;94419.19;;;35.03;16.79
6528;BME280;64597;42.664;23.256;2023-07-28T11:13:07;94446.19;;;35.01;16.58
6528;BME280;64597;42.664;23.256;2023-07-28T11:15:33;94436.81;;;35.02;17.16
6528;BME280;64597;42.664;23.256;2023-07-28T11:17:59;94437.97;;;34.97;15.98
6528;BME280;64597;42.664;23.256;2023-07-28T11:20:27;94433.63;;;34.78;16.07
6528;BME280;64597;42.664;23.256;2023-07-28T11:23:00;94446.44;;;34.18;16.78
6528;BME280;64597;42.664;23.256;2023-07-28T11:25:28;94437.81;;;34.16;17.11
6528;BME280;64597;42.664;23.256;2023-07-28T11:27:55;94431.59;;;34.26;17.17
6528;BME280;64597;42.664;23.256;2023-07-28T11:30:21;94421.38;;;34.20;16.98
6528;BME280;64597;42.664;23.256;2023-07-28T11:32:48;94414.38;;;34.26;17.46
6528;BME280;64597;42.664;23.256;2023-07-28T11:35:16;94416.72;;;34.41;17.15
6528;BME280;64597;42.664;23.256;2023-07-28T11:37:45;94393.25;;;34.37;17.29
6528;BME280;64597;42.664;23.256;2023-07-28T11:40:14;94408.09;;;34.22;17.50
6528;BME280;64597;42.664;23.256;2023-07-28T11:42:44;94405.72;;;34.17;17.35
6528;BME280;64597;42.664;23.256;2023-07-28T11:45:12;94394.38;;;34.15;18.32
6528;BME280;64597;42.664;23.256;2023-07-28T11:47:38;94432.38;;;34.30;17.86
6528;BME280;64597;42.664;23.256;2023-07-28T11:50:04;94401.84;;;34.28;17.94
6528;BME280;64597;42.664;23.256;2023-07-28T11:52:36;94406.53;;;34.31;18.09
6528;BME280;64597;42.664;23.256;2023-07-28T11:55:06;94411.25;;;34.38;17.88
6528;BME280;64597;42.664;23.256;2023-07-28T11:57:32;94409.69;;;34.26;18.40
6528;BME280;64597;42.664;23.256;2023-07-28T12:00:04;94416.72;;;34.34;18.13
6528;BME280;64597;42.664;23.256;2023-07-28T12:02:31;94402.22;;;34.27;18.20
6528;BME280;64597;42.664;23.256;2023-07-28T12:04:58;94400.28;;;34.24;18.62
6528;BME280;64597;42.664;23.256;2023-07-28T12:07:28;94390.88;;;34.25;18.02
6528;BME280;64597;42.664;23.256;2023-07-28T12:09:55;94398.59;;;33.98;18.29
6528;BME280;64597;42.664;23.256;2023-07-28T12:12:25;94389.09;;;33.60;18.85
6528;BME280;64597;42.664;23.256;2023-07-28T12:14:57;94394.06;;;33.44;19.98
6528;BME280;64597;42.664;23.256;2023-07-28T12:17:31;94399.13;;;33.46;19.30
6528;BME280;64597;42.664;23.256;2023-07-28T12:20:07;94395.69;;;33.49;20.14
6528;BME280;64597;42.664;23.256;2023-07-28T12:22:43;94393.75;;;33.56;20.02
6528;BME280;64597;42.664;23.256;2023-07-28T12:25:09;94378.94;;;33.68;19.57
6528;BME280;64597;42.664;23.256;2023-07-28T12:27:35;94378.94;;;33.64;19.46
6528;BME280;64597;42.664;23.256;2023-07-28T12:30:01;94387.53;;;33.63;19.98
6528;BME280;64597;42.664;23.256;2023-07-28T12:32:27;94373.47;;;33.61;19.62
6528;BME280;64597;42.664;23.256;2023-07-28T12:34:52;94379.75;;;33.68;19.73
6528;BME280;64597;42.664;23.256;2023-07-28T12:37:19;94374.66;;;33.67;20.00
6528;BME280;64597;42.664;23.256;2023-07-28T12:39:45;94375.81;;;33.62;19.65
6528;BME280;64597;42.664;23.256;2023-07-28T12:42:12;94357.00;;;33.57;19.89
6528;BME280;64597;42.664;23.256;2023-07-28T12:44:38;94360.06;;;33.42;19.99
6528;BME280;64597;42.664;23.256;2023-07-28T12:47:04;94356.03;;;33.18;20.57
6528;BME280;64597;42.664;23.256;2023-07-28T12:49:30;94362.19;;;33.04;20.24
6528;BME280;64597;42.664;23.256;2023-07-28T12:51:58;94368.38;;;32.98;21.14
6528;BME280;64597;42.664;23.256;2023-07-28T12:54:24;94356.72;;;33.04;20.27
6528;BME280;64597;42.664;23.256;2023-07-28T12:56:50;94362.44;;;32.89;20.65
6528;BME280;64597;42.664;23.256;2023-07-28T12:59:16;94353.22;;;33.07;20.52
6528;BME280;64597;42.664;23.256;2023-07-28T13:01:41;94348.59;;;33.18;21.06
6528;BME280;64597;42.664;23.256;2023-07-28T13:04:07;94356.06;;;33.28;20.25
6528;BME280;64597;42.664;23.256;2023-07-28T13:06:33;94352.50;;;33.17;21.04
6528;BME280;64597;42.664;23.256;2023-07-28T13:08:59;94351.38;;;33.22;20.40
6528;BME280;64597;42.664;23.256;2023-07-28T13:11:24;94340.81;;;33.20;20.47
6528;BME280;64597;42.664;23.256;2023-07-28T13:13:50;94333.34;;;33.14;20.18
6528;BME280;64597;42.664;23.256;2023-07-28T13:16:15;94327.84;;;33.07;20.36
6528;BME280;64597;42.664;23.256;2023-07-28T13:18:44;94329.47;;;33.15;20.17
6528;BME280;64597;42.664;23.256;2023-07-28T13:21:10;94326.72;;;33.11;20.23